Time;durP1;ratioP1;P1;durP2;ratioP2;P2;SDS_P1;SDS_P2;PMS_P1;PMS_P2;Temp;Humidity;BMP_temperature;BMP_pressure;BME280_temperature;BME280_humidity;BME280_pressure;Samples;Min_cycle;Max_cycle;Signal;HPM_P1;HPM_P2
2022/12/24 00:02:10;;;;;;;124.75;114.68;;;9.40;99.90;;;;;;5095076;28;20047;-66
2022/12/24 00:04:36;;;;;;;126.97;116.07;;;9.40;99.90;;;;;;5095778;28;20123;-67
2022/12/24 00:07:02;;;;;;;128.73;117.35;;;9.50;99.90;;;;;;5095379;28;20349;-66
2022/12/24 00:09:28;;;;;;;128.27;118.03;;;9.50;99.90;;;;;;5096723;28;20032;-67
2022/12/24 00:11:54;;;;;;;124.75;115.47;;;9.50;99.90;;;;;;5095466;28;20444;-66
2022/12/24 00:14:20;;;;;;;129.73;117.88;;;9.40;99.90;;;;;;5095398;28;20051;-66
2022/12/24 00:16:45;;;;;;;128.68;116.60;;;9.50;99.90;;;;;;5096499;28;20082;-66
2022/12/24 00:19:11;;;;;;;125.70;114.45;;;9.50;99.90;;;;;;5096438;28;20059;-67
2022/12/24 00:21:37;;;;;;;130.57;118.18;;;9.60;99.90;;;;;;5096609;28;20040;-66
2022/12/24 00:24:04;;;;;;;125.20;115.97;;;9.50;99.90;;;;;;5096457;28;20044;-67
2022/12/24 00:26:34;;;;;;;126.47;115.93;;;9.50;99.90;;;;;;5095173;28;20081;-67
2022/12/24 00:29:00;;;;;;;122.65;114.05;;;9.60;99.90;;;;;;5096467;28;20044;-66
2022/12/24 00:31:26;;;;;;;121.35;112.88;;;9.70;99.90;;;;;;5096147;28;20436;-66
2022/12/24 00:33:52;;;;;;;121.85;112.72;;;9.60;99.90;;;;;;5096338;28;20337;-66
2022/12/24 00:36:18;;;;;;;119.85;111.82;;;9.60;99.90;;;;;;5096250;28;20046;-66
2022/12/24 00:38:44;;;;;;;118.10;109.80;;;9.50;99.90;;;;;;5096464;28;20044;-66
2022/12/24 00:41:23;;;;;;;121.38;112.50;;;9.50;99.90;;;;;;5096411;28;20071;-66
2022/12/24 00:43:54;;;;;;;120.60;110.85;;;9.50;99.90;;;;;;5096200;28;20128;-66
2022/12/24 00:46:20;;;;;;;115.70;107.90;;;9.60;99.90;;;;;;5096352;28;20038;-66
2022/12/24 00:48:47;;;;;;;112.28;104.75;;;9.60;99.90;;;;;;5095026;28;20333;-66
2022/12/24 00:51:13;;;;;;;125.10;114.45;;;9.60;99.90;;;;;;5096251;28;20033;-66
2022/12/24 00:53:39;;;;;;;121.63;111.32;;;9.60;99.90;;;;;;5096358;28;20054;-66
2022/12/24 00:56:05;;;;;;;121.75;112.50;;;9.50;99.90;;;;;;5096596;28;20044;-66
2022/12/24 00:58:31;;;;;;;119.38;110.57;;;9.60;99.90;;;;;;5100340;28;20093;-66
2022/12/24 01:00:56;;;;;;;121.45;113.43;;;9.40;99.90;;;;;;5099735;28;20043;-66
2022/12/24 01:03:22;;;;;;;119.65;111.55;;;9.40;99.90;;;;;;5099829;28;20040;-66
2022/12/24 01:05:50;;;;;;;123.07;114.38;;;9.40;99.90;;;;;;5100004;28;20040;-67
2022/12/24 01:08:15;;;;;;;131.23;120.25;;;9.30;99.90;;;;;;5099760;28;20118;-66
2022/12/24 01:10:41;;;;;;;123.40;114.03;;;9.40;99.90;;;;;;5099676;28;20128;-66
2022/12/24 01:13:07;;;;;;;123.10;113.88;;;9.40;99.90;;;;;;5099628;28;20051;-66
2022/12/24 01:15:32;;;;;;;121.97;113.53;;;9.50;99.90;;;;;;5099756;28;20119;-66
2022/12/24 01:17:58;;;;;;;119.47;111.18;;;9.50;99.90;;;;;;5099815;28;20102;-66
2022/12/24 01:20:25;;;;;;;121.05;112.95;;;9.50;99.90;;;;;;5099438;28;20040;-72
2022/12/24 01:22:51;;;;;;;114.40;106.60;;;9.50;99.90;;;;;;5098888;28;20055;-66
2022/12/24 01:25:17;;;;;;;122.65;112.90;;;9.50;99.90;;;;;;5099301;28;20052;-66
2022/12/24 01:27:43;;;;;;;123.85;115.38;;;9.50;99.90;;;;;;5099342;28;20032;-66
2022/12/24 01:30:13;;;;;;;126.85;117.30;;;9.40;99.90;;;;;;5099390;28;20040;-66
2022/12/24 01:32:38;;;;;;;128.07;117.47;;;9.50;99.90;;;;;;5081225;28;20102;-66
2022/12/24 01:35:04;;;;;;;122.53;112.30;;;9.50;99.90;;;;;;5099230;28;20413;-67
2022/12/24 01:37:30;;;;;;;118.93;110.93;;;9.50;99.90;;;;;;5098403;28;20048;-66
2022/12/24 01:43:22;;;;;;;124.22;115.82;;;9.50;99.90;;;;;;5099354;28;20067;-66
2022/12/24 01:45:45;;;;;;;112.35;104.57;;;9.50;99.90;;;;;;5078811;28;20068;-67
2022/12/24 01:48:42;;;;;;;121.00;113.18;;;9.40;99.90;;;;;;5077740;28;20040;-66
2022/12/24 01:51:11;;;;;;;;;;;9.40;99.90;;;;;;5079287;28;20111;-67
2022/12/24 01:53:38;;;;;;;123.60;112.47;;;9.50;99.90;;;;;;5078829;28;20275;-66
2022/12/24 01:56:05;;;;;;;127.18;113.55;;;9.50;99.90;;;;;;5078513;28;20040;-67
2022/12/24 01:58:32;;;;;;;121.22;112.15;;;9.50;99.90;;;;;;5078753;28;20052;-66
2022/12/24 02:00:58;;;;;;;117.13;107.78;;;9.50;99.90;;;;;;5078002;28;20056;-67
2022/12/24 02:03:24;;;;;;;120.20;111.30;;;9.50;99.90;;;;;;5078596;28;20037;-66
2022/12/24 02:05:55;;;;;;;115.90;107.43;;;9.60;99.90;;;;;;5078522;28;20043;-66
2022/12/24 02:08:21;;;;;;;118.30;110.25;;;9.60;99.90;;;;;;5078230;28;20098;-66
2022/12/24 02:10:48;;;;;;;116.15;108.45;;;9.60;99.90;;;;;;5078170;28;20032;-67
2022/12/24 02:13:17;;;;;;;116.68;108.57;;;9.60;99.90;;;;;;5078241;28;20051;-66
2022/12/24 02:16:18;;;;;;;124.30;112.50;;;9.60;99.90;;;;;;5078474;28;20052;-66
2022/12/24 02:19:15;;;;;;;116.68;108.78;;;9.60;99.90;;;;;;5088574;28;20099;-67
2022/12/24 02:22:17;;;;;;;113.13;105.47;;;9.60;99.90;;;;;;5078484;28;20032;-67
2022/12/24 02:25:31;;;;;;;114.05;106.22;;;9.70;99.90;;;;;;5072620;28;20502;-67
2022/12/24 02:28:07;;;;;;;114.20;106.72;;;9.70;99.90;;;;;;5061136;28;20055;-67
2022/12/24 02:30:49;;;;;;;;;;;9.70;99.90;;;;;;5078267;28;20088;-67
2022/12/24 02:33:43;;;;;;;110.72;103.07;;;9.70;99.90;;;;;;5077200;28;19970;-66
2022/12/24 02:36:18;;;;;;;114.50;104.80;;;9.60;99.90;;;;;;5075926;28;20524;-67
2022/12/24 02:39:10;;;;;;;110.78;102.72;;;9.60;99.90;;;;;;5077256;28;20337;-67
2022/12/24 02:44:29;;;;;;;114.40;106.43;;;9.70;99.90;;;;;;5077428;28;20059;-67
2022/12/24 02:46:58;;;;;;;121.43;110.53;;;9.60;99.90;;;;;;5077119;28;20035;-68
2022/12/24 02:49:24;;;;;;;115.72;107.75;;;9.60;99.90;;;;;;5076838;28;20082;-67
2022/12/24 02:51:49;;;;;;;118.88;110.32;;;9.60;99.90;;;;;;5077017;28;20036;-67
2022/12/24 02:54:15;;;;;;;117.72;109.70;;;9.50;99.90;;;;;;5076013;28;20062;-67
2022/12/24 02:56:56;;;;;;;121.63;112.78;;;9.60;99.90;;;;;;5110378;28;20422;-67
2022/12/24 02:59:35;;;;;;;121.07;111.43;;;9.70;99.90;;;;;;5075797;28;20098;-67
2022/12/24 03:02:13;;;;;;;122.65;113.95;;;9.70;99.90;;;;;;5108904;28;20485;-67
2022/12/24 03:04:53;;;;;;;132.38;121.25;;;9.60;99.90;;;;;;5076671;28;20483;-67
2022/12/24 03:07:23;;;;;;;140.60;129.18;;;9.50;99.90;;;;;;5075899;28;20046;-67
2022/12/24 03:10:01;;;;;;;141.13;127.25;;;9.30;99.90;;;;;;5076637;28;20330;-67
2022/12/24 03:12:35;;;;;;;136.00;122.63;;;9.10;99.90;;;;;;5110255;28;20357;-66
2022/12/24 03:15:02;;;;;;;136.60;122.75;;;9.20;99.90;;;;;;5076712;28;20067;-66
2022/12/24 03:17:29;;;;;;;157.63;127.55;;;9.30;99.90;;;;;;5076136;28;20123;-67
2022/12/24 03:19:55;;;;;;;140.20;126.03;;;9.20;99.90;;;;;;5076634;28;20094;-67
2022/12/24 03:22:23;;;;;;;137.63;123.55;;;9.10;99.90;;;;;;5076942;28;20032;-67
2022/12/24 03:24:49;;;;;;;133.63;121.70;;;9.00;99.90;;;;;;5076787;28;20044;-67
2022/12/24 03:27:15;;;;;;;129.63;118.22;;;8.90;99.90;;;;;;5076805;28;20053;-67
2022/12/24 03:29:41;;;;;;;131.25;119.75;;;8.80;99.90;;;;;;5076986;28;20047;-67
2022/12/24 03:32:07;;;;;;;125.15;115.30;;;8.70;99.90;;;;;;5076213;28;20044;-67
2022/12/24 03:34:33;;;;;;;124.22;113.72;;;8.70;99.90;;;;;;5077010;28;20393;-67
2022/12/24 03:36:59;;;;;;;123.82;114.20;;;8.80;99.90;;;;;;5076825;28;20071;-66
2022/12/24 03:39:25;;;;;;;125.22;114.20;;;8.80;99.90;;;;;;5076617;28;20058;-66
2022/12/24 03:41:50;;;;;;;122.20;112.13;;;8.90;99.90;;;;;;5076892;28;20044;-66
2022/12/24 03:44:16;;;;;;;123.40;112.95;;;8.90;99.90;;;;;;5076641;28;20036;-66
2022/12/24 03:46:41;;;;;;;124.10;114.13;;;8.90;99.90;;;;;;5075463;28;20486;-67
2022/12/24 03:49:07;;;;;;;123.00;112.88;;;8.90;99.90;;;;;;5076780;28;20055;-66
2022/12/24 03:51:33;;;;;;;122.95;113.00;;;8.90;99.90;;;;;;5076728;28;20093;-66
2022/12/24 03:53:59;;;;;;;121.15;111.28;;;8.90;99.90;;;;;;5076543;28;20448;-66
2022/12/24 03:56:25;;;;;;;122.28;112.18;;;8.90;99.90;;;;;;5076497;28;20040;-66
2022/12/24 03:58:52;;;;;;;119.38;109.13;;;8.90;99.90;;;;;;5075565;28;20174;-66
2022/12/24 04:01:18;;;;;;;122.85;112.20;;;8.90;99.90;;;;;;5075877;28;20445;-67
2022/12/24 04:03:44;;;;;;;113.35;103.07;;;8.90;99.90;;;;;;5075445;28;20048;-67
2022/12/24 04:06:16;;;;;;;117.15;106.55;;;8.90;99.90;;;;;;5076593;28;20318;-66
2022/12/24 04:08:42;;;;;;;116.38;105.85;;;8.80;99.90;;;;;;5075521;28;20040;-66
2022/12/24 04:11:10;;;;;;;115.78;105.28;;;9.00;99.90;;;;;;5076450;28;20441;-66
2022/12/24 04:13:36;;;;;;;114.10;104.45;;;8.90;99.90;;;;;;5076189;28;20452;-67
2022/12/24 04:16:13;;;;;;;117.25;106.70;;;9.00;99.90;;;;;;5108928;28;20040;-67
2022/12/24 04:18:40;;;;;;;114.28;104.40;;;9.00;99.90;;;;;;5076447;28;20124;-66
2022/12/24 04:21:07;;;;;;;115.75;104.97;;;9.00;99.90;;;;;;5075222;28;20036;-66
2022/12/24 04:23:35;;;;;;;114.32;103.82;;;9.00;99.90;;;;;;5076413;28;20041;-66
2022/12/24 04:26:02;;;;;;;115.80;103.75;;;9.10;99.90;;;;;;5075996;28;20056;-66
2022/12/24 04:28:28;;;;;;;113.72;102.07;;;9.20;99.90;;;;;;5076350;28;20044;-66
2022/12/24 04:31:06;;;;;;;110.95;100.88;;;9.20;99.90;;;;;;5076023;28;20040;-67
2022/12/24 04:33:32;;;;;;;110.25;98.78;;;9.30;99.90;;;;;;5113473;28;20098;-66
2022/12/24 04:35:59;;;;;;;107.18;97.00;;;9.30;99.90;;;;;;5079218;28;20041;-66
2022/12/24 04:38:26;;;;;;;108.93;98.40;;;9.30;99.90;;;;;;5080619;28;20094;-67
2022/12/24 04:41:03;;;;;;;107.38;96.43;;;9.20;99.90;;;;;;5080137;28;20066;-67
2022/12/24 04:43:29;;;;;;;103.85;94.18;;;9.30;99.90;;;;;;5080161;28;20036;-66
2022/12/24 04:45:55;;;;;;;106.28;96.72;;;9.20;99.90;;;;;;5080035;28;20072;-66
2022/12/24 04:48:21;;;;;;;107.07;95.45;;;9.20;99.90;;;;;;5080005;28;20045;-66
2022/12/24 04:50:47;;;;;;;102.93;91.88;;;9.20;99.90;;;;;;5079940;28;20045;-67
2022/12/24 04:53:13;;;;;;;112.10;90.15;;;9.30;99.90;;;;;;5112734;28;20044;-66
2022/12/24 04:55:48;;;;;;;104.18;93.32;;;9.20;99.90;;;;;;5078903;28;20079;-67
2022/12/24 04:58:14;;;;;;;102.90;92.40;;;9.20;99.90;;;;;;5080076;28;20122;-67
2022/12/24 05:00:40;;;;;;;103.30;93.03;;;9.10;99.90;;;;;;5079739;28;20449;-66
2022/12/24 05:03:05;;;;;;;104.75;94.38;;;9.10;99.90;;;;;;5079547;28;20028;-66
2022/12/24 05:05:31;;;;;;;99.80;90.53;;;9.10;99.90;;;;;;5079888;28;20048;-67
2022/12/24 05:07:57;;;;;;;105.25;94.97;;;9.10;99.90;;;;;;5079575;28;20036;-67
2022/12/24 05:10:22;;;;;;;103.95;93.40;;;9.10;99.90;;;;;;5078600;28;20048;-66
2022/12/24 05:12:48;;;;;;;107.45;97.32;;;8.90;99.90;;;;;;5079715;28;20043;-67
2022/12/24 05:15:14;;;;;;;105.55;94.32;;;9.00;99.90;;;;;;5078830;28;20353;-66
2022/12/24 05:17:39;;;;;;;108.78;97.93;;;9.00;99.90;;;;;;5079541;28;20333;-66
2022/12/24 05:20:06;;;;;;;109.60;97.55;;;9.00;99.90;;;;;;5079648;28;20044;-66
2022/12/24 05:28:00;;;;;;;103.10;92.75;;;9.00;99.90;;;;;;5079283;28;20521;-67
2022/12/24 05:30:26;;;;;;;102.20;93.35;;;9.10;99.90;;;;;;5079170;28;20123;-66
2022/12/24 05:32:51;;;;;;;104.80;94.53;;;9.00;99.90;;;;;;5077935;28;20045;-67
2022/12/24 05:35:17;;;;;;;103.20;93.05;;;9.10;99.90;;;;;;5079358;28;20422;-67
2022/12/24 05:37:43;;;;;;;102.95;92.88;;;9.00;99.90;;;;;;5079238;28;20429;-67
2022/12/24 05:40:09;;;;;;;99.82;89.25;;;9.10;99.90;;;;;;5079011;28;20044;-66
2022/12/24 05:42:34;;;;;;;106.53;95.25;;;9.10;99.90;;;;;;5078607;28;20079;-66
2022/12/24 05:45:00;;;;;;;102.07;91.50;;;9.20;99.90;;;;;;5079067;28;20083;-66
2022/12/24 05:47:26;;;;;;;107.82;95.60;;;9.10;99.90;;;;;;5077902;28;20037;-66
2022/12/24 05:49:51;;;;;;;111.05;96.63;;;9.30;99.90;;;;;;5078843;28;20044;-66
2022/12/24 05:52:17;;;;;;;106.28;95.40;;;9.30;99.90;;;;;;5078996;28;20115;-66
2022/12/24 05:54:43;;;;;;;102.95;92.18;;;9.30;99.90;;;;;;5078683;28;20044;-66
2022/12/24 05:57:08;;;;;;;107.05;95.90;;;9.30;99.90;;;;;;5078734;28;20044;-66
2022/12/24 05:59:34;;;;;;;107.35;95.88;;;9.40;99.90;;;;;;5077653;28;20047;-66
2022/12/24 06:02:00;;;;;;;105.13;94.90;;;9.40;99.90;;;;;;5078197;28;20101;-66
2022/12/24 06:04:25;;;;;;;106.13;94.70;;;9.40;99.90;;;;;;5078495;28;20049;-66
2022/12/24 06:06:51;;;;;;;103.15;91.65;;;9.40;99.90;;;;;;5061553;28;20444;-67
2022/12/24 06:09:17;;;;;;;104.88;92.53;;;9.50;99.90;;;;;;5078537;28;20452;-67
2022/12/24 06:11:42;;;;;;;109.13;85.88;;;9.60;99.90;;;;;;5078401;28;20037;-66
2022/12/24 06:14:08;;;;;;;113.50;91.47;;;9.70;99.90;;;;;;5078584;28;20045;-66
2022/12/24 06:16:34;;;;;;;99.00;88.88;;;9.70;99.90;;;;;;5078443;28;20123;-66
2022/12/24 06:19:00;;;;;;;105.60;94.07;;;9.60;99.90;;;;;;5078444;28;20040;-66
2022/12/24 06:21:25;;;;;;;105.15;92.43;;;9.50;99.90;;;;;;5077212;28;20033;-68
2022/12/24 06:23:52;;;;;;;115.10;91.18;;;9.60;99.90;;;;;;5078321;28;20036;-67
2022/12/24 06:26:20;;;;;;;98.32;88.78;;;9.40;99.90;;;;;;5077948;28;20430;-66
2022/12/24 06:28:47;;;;;;;114.78;90.85;;;9.40;99.90;;;;;;5078376;28;20044;-67
2022/12/24 06:31:16;;;;;;;109.78;90.32;;;9.50;99.90;;;;;;5077071;28;20330;-66
2022/12/24 06:33:42;;;;;;;117.88;93.82;;;9.50;99.90;;;;;;5077192;28;20098;-67
2022/12/24 06:36:12;;;;;;;103.03;92.72;;;9.40;99.90;;;;;;5078184;28;20045;-66
2022/12/24 06:38:37;;;;;;;103.90;91.90;;;9.40;99.90;;;;;;5078013;28;20398;-67
2022/12/24 06:41:07;;;;;;;112.90;88.43;;;9.30;99.90;;;;;;5076923;28;20072;-66
2022/12/24 06:43:33;;;;;;;109.07;91.10;;;9.40;99.90;;;;;;5077796;28;20086;-66
2022/12/24 06:46:00;;;;;;;105.40;92.25;;;9.40;99.90;;;;;;5077677;28;20112;-67
2022/12/24 06:48:26;;;;;;;105.57;92.40;;;9.40;99.90;;;;;;5076629;28;20037;-67
2022/12/24 06:50:52;;;;;;;100.75;89.55;;;9.40;99.90;;;;;;5077689;28;20052;-66
2022/12/24 06:53:17;;;;;;;99.53;84.53;;;9.30;99.90;;;;;;5093517;28;20039;-66
2022/12/24 06:55:43;;;;;;;100.90;85.03;;;9.40;99.90;;;;;;5077200;28;20058;-66
2022/12/24 06:58:09;;;;;;;102.60;89.90;;;9.30;99.90;;;;;;5077559;28;20051;-66
2022/12/24 07:00:35;;;;;;;108.28;91.57;;;9.30;99.90;;;;;;5076323;28;20044;-67
2022/12/24 07:03:01;;;;;;;102.60;88.85;;;9.30;99.90;;;;;;5077077;28;20041;-66
2022/12/24 07:05:26;;;;;;;98.45;87.90;;;9.30;99.90;;;;;;5077623;28;20043;-66
2022/12/24 07:07:52;;;;;;;97.57;84.25;;;9.20;99.90;;;;;;5077645;28;20040;-66
2022/12/24 07:10:19;;;;;;;96.03;85.15;;;9.30;99.90;;;;;;5077341;28;20036;-67
2022/12/24 07:12:45;;;;;;;103.47;88.47;;;9.30;99.90;;;;;;5110416;28;20400;-66
2022/12/24 07:15:12;;;;;;;112.97;88.97;;;9.30;99.90;;;;;;5076017;28;20121;-67
2022/12/24 07:17:37;;;;;;;101.25;87.40;;;9.30;99.90;;;;;;5077388;28;20037;-66
2022/12/24 07:20:05;;;;;;;110.85;82.70;;;9.20;99.90;;;;;;5076253;28;20416;-66
2022/12/24 07:22:30;;;;;;;100.25;77.65;;;9.10;99.90;;;;;;5077133;28;20036;-66
2022/12/24 07:24:56;;;;;;;97.32;79.28;;;9.20;99.90;;;;;;5077003;28;20468;-67
2022/12/24 07:27:22;;;;;;;91.20;81.80;;;9.20;99.90;;;;;;5077274;28;20460;-66
2022/12/24 07:29:47;;;;;;;91.45;81.82;;;9.20;99.90;;;;;;5076872;28;20068;-67
2022/12/24 07:32:13;;;;;;;92.15;81.97;;;9.10;99.90;;;;;;5076689;28;20109;-67
2022/12/24 07:34:39;;;;;;;92.80;78.07;;;9.20;99.90;;;;;;5076952;28;20075;-67
2022/12/24 07:37:06;;;;;;;100.05;80.75;;;9.20;99.90;;;;;;5076823;28;20040;-66
2022/12/24 07:39:31;;;;;;;97.95;81.10;;;9.20;99.90;;;;;;5076789;28;20058;-67
2022/12/24 07:41:57;;;;;;;91.18;79.93;;;9.20;99.90;;;;;;5077040;28;20051;-66
2022/12/24 07:44:23;;;;;;;98.88;78.38;;;9.20;99.90;;;;;;5075739;28;20036;-67
2022/12/24 07:46:48;;;;;;;106.40;80.80;;;9.30;99.90;;;;;;5076602;28;20048;-67
2022/12/24 07:49:14;;;;;;;90.65;76.50;;;9.30;99.90;;;;;;5076921;28;20039;-67
2022/12/24 07:51:39;;;;;;;98.65;74.68;;;9.30;99.90;;;;;;5076876;28;20043;-67
2022/12/24 07:54:05;;;;;;;104.43;70.63;;;9.30;99.90;;;;;;5076520;28;20089;-67
2022/12/24 07:56:31;;;;;;;109.05;79.00;;;9.30;99.90;;;;;;5076800;28;20048;-66
2022/12/24 07:58:57;;;;;;;102.72;79.38;;;9.30;99.90;;;;;;5076426;28;20496;-67
2022/12/24 08:01:23;;;;;;;90.07;80.65;;;9.40;99.90;;;;;;5076077;28;20126;-66
2022/12/24 08:03:53;;;;;;;96.30;82.70;;;9.50;99.90;;;;;;5075510;28;20029;-66
2022/12/24 08:06:19;;;;;;;94.13;81.32;;;9.50;99.90;;;;;;5076497;28;20353;-66
2022/12/24 08:08:45;;;;;;;100.05;81.18;;;9.50;99.90;;;;;;5076437;28;20121;-66
2022/12/24 08:11:11;;;;;;;92.07;82.75;;;9.60;99.90;;;;;;5075754;28;20089;-66
2022/12/24 08:13:37;;;;;;;93.95;82.85;;;9.60;99.90;;;;;;5075327;28;20039;-66
2022/12/24 08:16:04;;;;;;;93.60;84.53;;;9.60;99.90;;;;;;5076675;28;20036;-66
2022/12/24 08:18:29;;;;;;;102.65;84.57;;;9.60;99.90;;;;;;5076569;28;20071;-66
2022/12/24 08:20:55;;;;;;;96.32;85.85;;;9.70;99.90;;;;;;5076538;28;20044;-66
2022/12/24 08:23:22;;;;;;;105.03;79.15;;;9.60;99.90;;;;;;5109278;28;20043;-66
2022/12/24 08:25:48;;;;;;;97.40;81.80;;;9.70;99.90;;;;;;5076125;28;20044;-67
2022/12/24 08:28:16;;;;;;;95.90;83.32;;;9.80;99.90;;;;;;5076170;28;20047;-66
2022/12/24 08:30:42;;;;;;;102.68;78.72;;;9.80;99.90;;;;;;5075439;28;20323;-66
2022/12/24 08:33:08;;;;;;;96.65;80.55;;;9.90;99.90;;;;;;5058270;28;20040;-67
2022/12/24 08:35:33;;;;;;;105.20;79.60;;;9.90;99.90;;;;;;5058428;28;20052;-66
2022/12/24 08:37:59;;;;;;;92.68;79.65;;;9.90;99.90;;;;;;5076389;28;20044;-66
2022/12/24 08:40:25;;;;;;;95.07;81.95;;;9.80;99.90;;;;;;5076177;28;20044;-67
2022/12/24 08:42:51;;;;;;;94.97;81.75;;;9.80;99.90;;;;;;5108815;28;20044;-67
2022/12/24 08:45:17;;;;;;;98.68;82.03;;;9.90;99.90;;;;;;5076273;28;20066;-67
2022/12/24 08:47:43;;;;;;;105.38;84.47;;;9.90;99.90;;;;;;5076241;28;20032;-66
2022/12/24 08:50:09;;;;;;;110.40;79.38;;;9.90;99.90;;;;;;5076237;28;20422;-65
2022/12/24 08:52:35;;;;;;;99.85;82.55;;;9.90;99.90;;;;;;5076098;28;20040;-66
2022/12/24 08:55:01;;;;;;;101.07;83.03;;;10.00;99.90;;;;;;5076015;28;20040;-65
2022/12/24 08:57:27;;;;;;;92.15;79.00;;;9.90;99.90;;;;;;5075936;28;20307;-67
2022/12/24 08:59:52;;;;;;;96.22;80.47;;;9.90;99.90;;;;;;5075926;28;20044;-67
2022/12/24 09:02:19;;;;;;;107.45;80.53;;;9.80;99.90;;;;;;5074435;28;20044;-64
2022/12/24 09:04:44;;;;;;;100.53;78.70;;;9.90;99.90;;;;;;5075849;28;20127;-65
2022/12/24 09:07:10;;;;;;;96.18;78.30;;;9.70;99.90;;;;;;5075840;28;20123;-65
2022/12/24 09:09:36;;;;;;;110.43;79.00;;;9.80;99.90;;;;;;5075974;28;20040;-65
2022/12/24 09:12:07;;;;;;;92.22;74.38;;;9.80;99.90;;;;;;5075872;28;20049;-66
2022/12/24 09:14:33;;;;;;;95.38;76.55;;;9.70;99.90;;;;;;5091700;28;20151;-65
2022/12/24 09:16:59;;;;;;;88.72;76.70;;;9.70;99.90;;;;;;5075298;28;20036;-65
2022/12/24 09:19:26;;;;;;;86.10;74.95;;;9.80;99.90;;;;;;5112462;28;20325;-65
2022/12/24 09:21:51;;;;;;;96.70;74.85;;;9.80;99.90;;;;;;5079453;28;20076;-65
2022/12/24 09:24:17;;;;;;;96.55;72.38;;;9.80;99.90;;;;;;5077638;28;20075;-68
2022/12/24 09:26:44;;;;;;;109.80;76.43;;;9.90;99.90;;;;;;5077661;28;20059;-65
2022/12/24 09:29:10;;;;;;;98.00;74.05;;;9.90;99.90;;;;;;5079623;28;20044;-65
2022/12/24 09:31:36;;;;;;;96.97;77.50;;;9.80;99.90;;;;;;5079045;28;20040;-66
2022/12/24 09:34:02;;;;;;;89.82;78.72;;;9.80;99.90;;;;;;5079270;28;20040;-65
2022/12/24 09:36:27;;;;;;;98.53;75.28;;;9.80;99.90;;;;;;5061536;28;20048;-65
2022/12/24 09:38:53;;;;;;;106.13;77.72;;;9.70;99.90;;;;;;5079118;28;20032;-65
2022/12/24 09:41:30;;;;;;;104.95;75.35;;;9.90;99.90;;;;;;5078923;28;20044;-65
2022/12/24 09:44:26;;;;;;;96.20;78.03;;;9.90;99.90;;;;;;5079215;28;20044;-67
2022/12/24 09:46:53;;;;;;;97.57;79.03;;;9.90;99.90;;;;;;5078518;28;20354;-67
2022/12/24 09:49:26;;;;;;;96.88;73.50;;;9.90;99.90;;;;;;5078986;28;20045;-67
2022/12/24 09:51:59;;;;;;;101.97;71.90;;;9.90;99.90;;;;;;5078877;28;20425;-67
2022/12/24 09:54:35;;;;;;;87.18;68.10;;;9.90;99.90;;;;;;5078872;28;20448;-67
2022/12/24 09:57:11;;;;;;;84.50;72.10;;;9.90;99.90;;;;;;5078836;28;20040;-67
2022/12/24 09:59:46;;;;;;;86.30;72.60;;;9.90;99.90;;;;;;5078818;28;20045;-65
2022/12/24 10:02:17;;;;;;;88.53;75.75;;;9.90;99.90;;;;;;5078163;28;20329;-66
2022/12/24 10:04:45;;;;;;;95.57;74.72;;;10.00;99.90;;;;;;5060970;28;20068;-66
2022/12/24 10:07:29;;;;;;;93.95;71.38;;;10.00;99.90;;;;;;5078655;28;20051;-66
2022/12/24 10:10:13;;;;;;;90.78;74.75;;;10.00;99.90;;;;;;5078700;28;20040;-66
2022/12/24 10:13:07;;;;;;;88.65;73.40;;;10.00;99.90;;;;;;5078741;28;20066;-70
2022/12/24 10:15:45;;;;;;;104.30;83.40;;;10.10;99.90;;;;;;5077318;28;20083;-66
2022/12/24 10:18:29;;;;;;;108.55;78.57;;;10.30;99.90;;;;;;5077457;28;20048;-66
2022/12/24 10:21:22;;;;;;;103.57;71.72;;;10.30;99.90;;;;;;5078231;28;20040;-66
2022/12/24 10:24:12;;;;;;;89.13;70.70;;;10.30;99.90;;;;;;5078414;28;20338;-66
2022/12/24 10:26:44;;;;;;;92.63;72.60;;;10.40;99.90;;;;;;5073466;28;20052;-66
2022/12/24 10:29:19;;;;;;;87.25;70.50;;;10.40;99.90;;;;;;5077990;28;20044;-66
2022/12/24 10:32:16;;;;;;;88.03;75.40;;;10.40;99.90;;;;;;5076820;28;20043;-66
2022/12/24 10:35:00;;;;;;;116.05;75.88;;;10.40;99.90;;;;;;5078353;28;20048;-66
2022/12/24 10:37:28;;;;;;;105.00;76.97;;;10.50;99.90;;;;;;5078015;28;20044;-66
2022/12/24 10:39:55;;;;;;;92.20;77.20;;;10.60;99.90;;;;;;5078164;28;20394;-66
2022/12/24 10:42:24;;;;;;;87.93;75.43;;;10.50;99.90;;;;;;5078176;28;20041;-66
2022/12/24 10:44:56;;;;;;;86.70;77.43;;;10.60;99.90;;;;;;5078013;28;20048;-66
2022/12/24 10:47:23;;;;;;;86.28;77.38;;;10.70;99.90;;;;;;5077981;28;20040;-66
2022/12/24 10:50:09;;;;;;;94.85;77.00;;;10.80;99.90;;;;;;5078060;28;20040;-66
2022/12/24 10:52:39;;;;;;;86.90;78.13;;;10.90;99.90;;;;;;5077912;28;20036;-66
2022/12/24 10:55:23;;;;;;;90.18;81.35;;;10.70;99.90;;;;;;5077990;28;20048;-66
2022/12/24 10:58:04;;;;;;;87.22;78.45;;;10.70;99.90;;;;;;5077891;28;20123;-66
2022/12/24 11:00:31;;;;;;;85.70;77.40;;;10.70;99.90;;;;;;5076378;28;20048;-66
2022/12/24 11:03:27;;;;;;;93.95;83.95;;;10.60;99.90;;;;;;5076876;28;20430;-66
2022/12/24 11:06:05;;;;;;;93.40;83.90;;;10.70;99.90;;;;;;5077325;28;20039;-64
2022/12/24 11:08:31;;;;;;;86.75;78.72;;;10.80;99.90;;;;;;5077381;28;20452;-64
2022/12/24 11:11:01;;;;;;;87.28;79.50;;;10.70;99.90;;;;;;5077194;28;20115;-64
2022/12/24 11:13:28;;;;;;;89.35;81.22;;;10.60;99.90;;;;;;5077348;28;20044;-64
2022/12/24 11:16:24;;;;;;;90.25;82.10;;;10.70;99.90;;;;;;5077461;28;20094;-64
2022/12/24 11:18:58;;;;;;;89.65;80.45;;;10.70;99.90;;;;;;5076988;28;20086;-65
2022/12/24 11:21:30;;;;;;;89.95;82.53;;;10.70;99.90;;;;;;5077047;28;20051;-65
2022/12/24 11:23:58;;;;;;;90.90;82.43;;;10.80;99.90;;;;;;5076109;28;20403;-66
2022/12/24 11:26:28;;;;;;;91.28;82.60;;;10.80;99.90;;;;;;5076970;28;20491;-66
2022/12/24 11:29:23;;;;;;;92.20;83.70;;;10.80;99.90;;;;;;5077239;28;20044;-66
2022/12/24 11:31:51;;;;;;;95.35;86.05;;;10.80;99.90;;;;;;5074436;28;20090;-67
2022/12/24 11:34:22;;;;;;;84.18;76.68;;;10.80;99.90;;;;;;5077152;28;20044;-67
2022/12/24 11:36:50;;;;;;;83.40;75.95;;;10.50;99.90;;;;;;5076046;28;20048;-66
2022/12/24 11:39:22;;;;;;;87.30;78.85;;;10.50;99.90;;;;;;5076904;28;20083;-66
2022/12/24 11:41:52;;;;;;;82.97;75.00;;;10.50;99.90;;;;;;5076638;28;20043;-66
2022/12/24 11:44:25;;;;;;;80.80;72.53;;;10.40;99.90;;;;;;5076774;28;20326;-67
2022/12/24 11:46:55;;;;;;;87.65;79.95;;;10.30;99.90;;;;;;5076974;28;20078;-67
2022/12/24 11:49:26;;;;;;;87.38;79.28;;;10.40;99.90;;;;;;5076968;28;20043;-66
2022/12/24 11:52:23;;;;;;;90.32;81.82;;;10.50;99.90;;;;;;5075649;28;20045;-66
2022/12/24 11:55:07;;;;;;;91.75;83.20;;;10.60;99.90;;;;;;5067834;28;20429;-67
2022/12/24 11:57:48;;;;;;;90.32;81.20;;;10.50;99.90;;;;;;5076831;28;20044;-66
2022/12/24 12:00:14;;;;;;;92.07;84.75;;;10.30;99.90;;;;;;5075817;28;20032;-66
2022/12/24 12:02:43;;;;;;;91.10;82.03;;;10.40;99.90;;;;;;5076143;28;20448;-67
2022/12/24 12:05:16;;;;;;;82.05;73.60;;;10.40;99.90;;;;;;5075494;28;20040;-67
2022/12/24 12:07:44;;;;;;;83.05;75.65;;;10.50;99.90;;;;;;5075446;28;20184;-66
2022/12/24 12:10:18;;;;;;;81.88;74.28;;;10.60;99.90;;;;;;5076748;28;20046;-66
2022/12/24 12:13:08;;;;;;;84.68;76.03;;;10.50;99.90;;;;;;5076643;28;20036;-66
2022/12/24 12:15:40;;;;;;;81.65;74.45;;;10.50;99.90;;;;;;5075442;28;20334;-66
2022/12/24 12:18:18;;;;;;;78.65;72.47;;;10.40;99.90;;;;;;5076618;28;20048;-66
2022/12/24 12:21:03;;;;;;;76.75;69.68;;;10.30;99.90;;;;;;5076617;28;20052;-67
2022/12/24 12:23:30;;;;;;;71.90;64.85;;;10.30;99.90;;;;;;5076406;28;20040;-66
2022/12/24 12:26:00;;;;;;;75.28;67.65;;;10.30;99.90;;;;;;5076053;28;20178;-70
2022/12/24 12:28:46;;;;;;;76.93;69.45;;;10.20;99.90;;;;;;5076425;28;20036;-70
2022/12/24 12:31:22;;;;;;;76.63;70.18;;;10.00;99.90;;;;;;5075471;28;20117;-70
2022/12/24 12:34:14;;;;;;;78.55;72.00;;;9.90;99.90;;;;;;5074792;28;20119;-69
2022/12/24 12:36:48;;;;;;;81.18;74.47;;;9.90;99.90;;;;;;5058509;28;20083;-66
2022/12/24 12:39:14;;;;;;;81.82;74.15;;;10.10;99.90;;;;;;5075131;28;20430;-66
2022/12/24 12:42:04;;;;;;;82.88;74.65;;;10.20;99.90;;;;;;5076423;28;20040;-66
2022/12/24 12:44:56;;;;;;;82.20;75.88;;;10.20;99.90;;;;;;5075148;28;20384;-66
2022/12/24 12:47:46;;;;;;;89.90;81.55;;;10.30;99.90;;;;;;5076390;28;20036;-66
2022/12/24 12:50:24;;;;;;;78.82;71.65;;;10.40;99.90;;;;;;5075493;28;20040;-66
2022/12/24 12:52:59;;;;;;;79.82;72.97;;;10.20;99.90;;;;;;5077687;28;20430;-66